sensor_id;sensor_type;location;lat;lon;timestamp;P1;durP1;ratioP1;P2;durP2;ratioP2
58685;SDS011;44465;53.206;-6.106;2022-10-16T00:01:18;1.65;;;0.68;;
58685;SDS011;44465;53.206;-6.106;2022-10-16T00:03:46;0.63;;;0.60;;
58685;SDS011;44465;53.206;-6.106;2022-10-16T00:06:12;1.17;;;0.50;;
58685;SDS011;44465;53.206;-6.106;2022-10-16T00:08:39;1.33;;;0.83;;
58685;SDS011;44465;53.206;-6.106;2022-10-16T00:11:15;0.85;;;0.55;;
58685;SDS011;44465;53.206;-6.106;2022-10-16T00:13:43;1.08;;;0.60;;
58685;SDS011;44465;53.206;-6.106;2022-10-16T00:16:09;1.10;;;0.50;;
58685;SDS011;44465;53.206;-6.106;2022-10-16T00:18:36;1.05;;;0.55;;
58685;SDS011;44465;53.206;-6.106;2022-10-16T00:21:03;1.20;;;0.57;;
58685;SDS011;44465;53.206;-6.106;2022-10-16T00:25:56;0.80;;;0.40;;
58685;SDS011;44465;53.206;-6.106;2022-10-16T00:28:23;1.13;;;0.60;;
58685;SDS011;44465;53.206;-6.106;2022-10-16T00:30:49;2.42;;;0.65;;
58685;SDS011;44465;53.206;-6.106;2022-10-16T00:33:14;0.65;;;0.57;;
58685;SDS011;44465;53.206;-6.106;2022-10-16T00:35:40;0.70;;;0.57;;
58685;SDS011;44465;53.206;-6.106;2022-10-16T00:38:06;0.85;;;0.47;;
58685;SDS011;44465;53.206;-6.106;2022-10-16T00:40:31;0.63;;;0.52;;
58685;SDS011;44465;53.206;-6.106;2022-10-16T00:42:57;1.75;;;0.60;;
58685;SDS011;44465;53.206;-6.106;2022-10-16T00:45:23;0.55;;;0.50;;
58685;SDS011;44465;53.206;-6.106;2022-10-16T00:47:48;0.68;;;0.43;;
58685;SDS011;44465;53.206;-6.106;2022-10-16T00:52:53;1.75;;;0.57;;
58685;SDS011;44465;53.206;-6.106;2022-10-16T00:55:19;0.40;;;0.35;;
58685;SDS011;44465;53.206;-6.106;2022-10-16T00:57:46;0.65;;;0.50;;
58685;SDS011;44465;53.206;-6.106;2022-10-16T01:00:14;0.30;;;0.30;;
58685;SDS011;44465;53.206;-6.106;2022-10-16T01:02:43;0.50;;;0.50;;
58685;SDS011;44465;53.206;-6.106;2022-10-16T01:05:08;1.08;;;0.60;;
58685;SDS011;44465;53.206;-6.106;2022-10-16T01:12:56;0.32;;;0.30;;
58685;SDS011;44465;53.206;-6.106;2022-10-16T01:15:46;0.70;;;0.50;;
58685;SDS011;44465;53.206;-6.106;2022-10-16T01:21:27;0.38;;;0.38;;
58685;SDS011;44465;53.206;-6.106;2022-10-16T01:24:12;1.08;;;0.43;;
58685;SDS011;44465;53.206;-6.106;2022-10-16T01:32:12;1.05;;;0.50;;
58685;SDS011;44465;53.206;-6.106;2022-10-16T01:34:47;0.50;;;0.40;;
58685;SDS011;44465;53.206;-6.106;2022-10-16T01:37:19;1.45;;;0.30;;
58685;SDS011;44465;53.206;-6.106;2022-10-16T01:42:46;1.88;;;0.77;;
58685;SDS011;44465;53.206;-6.106;2022-10-16T01:45:19;1.58;;;0.47;;
58685;SDS011;44465;53.206;-6.106;2022-10-16T01:47:45;0.52;;;0.30;;
58685;SDS011;44465;53.206;-6.106;2022-10-16T01:50:13;1.45;;;0.40;;
58685;SDS011;44465;53.206;-6.106;2022-10-16T01:52:42;2.03;;;0.65;;
58685;SDS011;44465;53.206;-6.106;2022-10-16T01:55:11;0.70;;;0.40;;
58685;SDS011;44465;53.206;-6.106;2022-10-16T01:57:44;0.55;;;0.30;;
58685;SDS011;44465;53.206;-6.106;2022-10-16T02:00:14;1.58;;;0.52;;
58685;SDS011;44465;53.206;-6.106;2022-10-16T02:05:12;0.20;;;0.20;;
58685;SDS011;44465;53.206;-6.106;2022-10-16T02:07:44;0.60;;;0.43;;
58685;SDS011;44465;53.206;-6.106;2022-10-16T02:10:10;2.10;;;0.50;;
58685;SDS011;44465;53.206;-6.106;2022-10-16T02:12:36;1.25;;;0.60;;
58685;SDS011;44465;53.206;-6.106;2022-10-16T02:15:07;2.50;;;0.50;;
58685;SDS011;44465;53.206;-6.106;2022-10-16T02:17:33;0.73;;;0.52;;
58685;SDS011;44465;53.206;-6.106;2022-10-16T02:19:59;0.40;;;0.40;;
58685;SDS011;44465;53.206;-6.106;2022-10-16T02:22:42;0.35;;;0.28;;
58685;SDS011;44465;53.206;-6.106;2022-10-16T02:25:17;0.73;;;0.40;;
58685;SDS011;44465;53.206;-6.106;2022-10-16T02:30:44;2.40;;;0.45;;
58685;SDS011;44465;53.206;-6.106;2022-10-16T02:33:13;0.40;;;0.40;;
58685;SDS011;44465;53.206;-6.106;2022-10-16T02:35:41;0.38;;;0.38;;
58685;SDS011;44465;53.206;-6.106;2022-10-16T02:38:08;1.20;;;0.32;;
58685;SDS011;44465;53.206;-6.106;2022-10-16T02:40:34;1.73;;;0.50;;
58685;SDS011;44465;53.206;-6.106;2022-10-16T02:43:02;0.45;;;0.40;;
58685;SDS011;44465;53.206;-6.106;2022-10-16T02:45:30;0.65;;;0.65;;
58685;SDS011;44465;53.206;-6.106;2022-10-16T02:47:55;0.90;;;0.57;;
58685;SDS011;44465;53.206;-6.106;2022-10-16T02:50:21;0.65;;;0.50;;
58685;SDS011;44465;53.206;-6.106;2022-10-16T02:52:47;0.40;;;0.40;;
58685;SDS011;44465;53.206;-6.106;2022-10-16T02:55:13;1.23;;;0.50;;
58685;SDS011;44465;53.206;-6.106;2022-10-16T02:57:38;0.45;;;0.35;;
58685;SDS011;44465;53.206;-6.106;2022-10-16T03:00:06;1.90;;;0.40;;
58685;SDS011;44465;53.206;-6.106;2022-10-16T03:02:33;0.47;;;0.20;;
58685;SDS011;44465;53.206;-6.106;2022-10-16T03:04:58;0.82;;;0.30;;
58685;SDS011;44465;53.206;-6.106;2022-10-16T03:07:24;1.25;;;0.30;;
58685;SDS011;44465;53.206;-6.106;2022-10-16T03:09:49;0.40;;;0.40;;
58685;SDS011;44465;53.206;-6.106;2022-10-16T03:12:15;2.67;;;0.30;;
58685;SDS011;44465;53.206;-6.106;2022-10-16T03:14:40;1.13;;;0.50;;
58685;SDS011;44465;53.206;-6.106;2022-10-16T03:17:06;0.40;;;0.32;;
58685;SDS011;44465;53.206;-6.106;2022-10-16T03:19:32;1.65;;;0.50;;
58685;SDS011;44465;53.206;-6.106;2022-10-16T03:21:57;0.80;;;0.30;;
58685;SDS011;44465;53.206;-6.106;2022-10-16T03:24:23;2.90;;;0.65;;
58685;SDS011;44465;53.206;-6.106;2022-10-16T03:26:48;1.08;;;0.60;;
58685;SDS011;44465;53.206;-6.106;2022-10-16T03:29:14;0.93;;;0.47;;
58685;SDS011;44465;53.206;-6.106;2022-10-16T03:31:40;0.73;;;0.25;;
58685;SDS011;44465;53.206;-6.106;2022-10-16T03:34:06;0.50;;;0.50;;
58685;SDS011;44465;53.206;-6.106;2022-10-16T03:36:32;0.98;;;0.47;;
58685;SDS011;44465;53.206;-6.106;2022-10-16T03:38:58;0.95;;;0.38;;
58685;SDS011;44465;53.206;-6.106;2022-10-16T03:41:23;1.27;;;0.50;;
58685;SDS011;44465;53.206;-6.106;2022-10-16T03:43:49;0.75;;;0.40;;
58685;SDS011;44465;53.206;-6.106;2022-10-16T03:46:15;0.63;;;0.38;;
58685;SDS011;44465;53.206;-6.106;2022-10-16T03:48:40;1.17;;;0.70;;
58685;SDS011;44465;53.206;-6.106;2022-10-16T03:51:06;3.22;;;0.47;;
58685;SDS011;44465;53.206;-6.106;2022-10-16T03:53:31;0.55;;;0.40;;
58685;SDS011;44465;53.206;-6.106;2022-10-16T03:55:57;1.33;;;0.60;;
58685;SDS011;44465;53.206;-6.106;2022-10-16T03:58:23;1.63;;;0.50;;
58685;SDS011;44465;53.206;-6.106;2022-10-16T04:00:49;0.75;;;0.40;;
58685;SDS011;44465;53.206;-6.106;2022-10-16T04:03:14;1.95;;;0.50;;
58685;SDS011;44465;53.206;-6.106;2022-10-16T04:05:40;1.17;;;0.40;;
58685;SDS011;44465;53.206;-6.106;2022-10-16T04:08:06;0.50;;;0.40;;
58685;SDS011;44465;53.206;-6.106;2022-10-16T04:10:32;1.20;;;0.70;;
58685;SDS011;44465;53.206;-6.106;2022-10-16T04:12:57;1.95;;;0.75;;
58685;SDS011;44465;53.206;-6.106;2022-10-16T04:15:23;2.35;;;0.68;;
58685;SDS011;44465;53.206;-6.106;2022-10-16T04:17:50;1.48;;;0.60;;
58685;SDS011;44465;53.206;-6.106;2022-10-16T04:20:16;2.88;;;0.70;;
58685;SDS011;44465;53.206;-6.106;2022-10-16T04:22:42;1.45;;;0.50;;
58685;SDS011;44465;53.206;-6.106;2022-10-16T04:25:07;4.78;;;0.50;;
58685;SDS011;44465;53.206;-6.106;2022-10-16T04:27:33;1.88;;;0.40;;
58685;SDS011;44465;53.206;-6.106;2022-10-16T04:29:59;1.20;;;0.50;;
58685;SDS011;44465;53.206;-6.106;2022-10-16T04:32:25;0.60;;;0.40;;
58685;SDS011;44465;53.206;-6.106;2022-10-16T04:34:51;3.00;;;0.60;;
58685;SDS011;44465;53.206;-6.106;2022-10-16T04:37:17;3.60;;;0.70;;
58685;SDS011;44465;53.206;-6.106;2022-10-16T04:39:43;0.95;;;0.47;;
58685;SDS011;44465;53.206;-6.106;2022-10-16T04:42:08;2.60;;;0.77;;
58685;SDS011;44465;53.206;-6.106;2022-10-16T04:44:34;1.42;;;0.50;;
58685;SDS011;44465;53.206;-6.106;2022-10-16T04:46:59;0.25;;;0.22;;
58685;SDS011;44465;53.206;-6.106;2022-10-16T04:49:25;1.23;;;0.40;;
58685;SDS011;44465;53.206;-6.106;2022-10-16T04:51:51;2.55;;;0.55;;
58685;SDS011;44465;53.206;-6.106;2022-10-16T04:54:16;4.60;;;0.77;;
58685;SDS011;44465;53.206;-6.106;2022-10-16T04:56:42;2.83;;;0.38;;
58685;SDS011;44465;53.206;-6.106;2022-10-16T04:59:12;1.45;;;0.40;;
58685;SDS011;44465;53.206;-6.106;2022-10-16T05:01:39;1.65;;;0.30;;
58685;SDS011;44465;53.206;-6.106;2022-10-16T05:04:04;1.40;;;0.40;;
58685;SDS011;44465;53.206;-6.106;2022-10-16T05:06:30;0.80;;;0.30;;
58685;SDS011;44465;53.206;-6.106;2022-10-16T05:08:55;0.38;;;0.30;;
58685;SDS011;44465;53.206;-6.106;2022-10-16T05:11:21;1.52;;;0.60;;
58685;SDS011;44465;53.206;-6.106;2022-10-16T05:13:46;0.65;;;0.45;;
58685;SDS011;44465;53.206;-6.106;2022-10-16T05:16:12;0.47;;;0.40;;
58685;SDS011;44465;53.206;-6.106;2022-10-16T05:18:37;2.15;;;0.50;;
58685;SDS011;44465;53.206;-6.106;2022-10-16T05:21:03;1.05;;;0.98;;
58685;SDS011;44465;53.206;-6.106;2022-10-16T05:23:29;0.80;;;0.32;;
58685;SDS011;44465;53.206;-6.106;2022-10-16T05:25:55;0.40;;;0.40;;
58685;SDS011;44465;53.206;-6.106;2022-10-16T05:28:23;0.82;;;0.70;;
58685;SDS011;44465;53.206;-6.106;2022-10-16T05:30:50;0.43;;;0.40;;
58685;SDS011;44465;53.206;-6.106;2022-10-16T05:33:16;0.10;;;0.10;;
58685;SDS011;44465;53.206;-6.106;2022-10-16T05:35:42;0.32;;;0.30;;
58685;SDS011;44465;53.206;-6.106;2022-10-16T05:38:09;0.30;;;0.30;;
58685;SDS011;44465;53.206;-6.106;2022-10-16T05:40:34;0.30;;;0.30;;
58685;SDS011;44465;53.206;-6.106;2022-10-16T05:43:00;1.00;;;0.45;;
58685;SDS011;44465;53.206;-6.106;2022-10-16T05:45:26;0.30;;;0.30;;
58685;SDS011;44465;53.206;-6.106;2022-10-16T05:47:51;0.60;;;0.57;;
58685;SDS011;44465;53.206;-6.106;2022-10-16T05:50:17;0.73;;;0.40;;
58685;SDS011;44465;53.206;-6.106;2022-10-16T05:52:42;5.07;;;0.60;;
58685;SDS011;44465;53.206;-6.106;2022-10-16T05:55:08;1.20;;;0.65;;
58685;SDS011;44465;53.206;-6.106;2022-10-16T05:57:33;0.40;;;0.22;;
58685;SDS011;44465;53.206;-6.106;2022-10-16T05:59:59;0.47;;;0.40;;
58685;SDS011;44465;53.206;-6.106;2022-10-16T06:02:25;2.20;;;0.60;;
58685;SDS011;44465;53.206;-6.106;2022-10-16T06:04:53;0.82;;;0.40;;
58685;SDS011;44465;53.206;-6.106;2022-10-16T06:07:19;0.52;;;0.43;;
58685;SDS011;44465;53.206;-6.106;2022-10-16T06:09:47;0.40;;;0.32;;
58685;SDS011;44465;53.206;-6.106;2022-10-16T06:12:17;1.17;;;0.55;;
58685;SDS011;44465;53.206;-6.106;2022-10-16T06:14:43;1.88;;;0.20;;
58685;SDS011;44465;53.206;-6.106;2022-10-16T06:17:10;1.33;;;0.40;;
58685;SDS011;44465;53.206;-6.106;2022-10-16T06:19:35;0.20;;;0.20;;
58685;SDS011;44465;53.206;-6.106;2022-10-16T06:22:01;0.40;;;0.35;;
58685;SDS011;44465;53.206;-6.106;2022-10-16T06:24:27;1.52;;;0.52;;
58685;SDS011;44465;53.206;-6.106;2022-10-16T06:26:53;0.65;;;0.40;;
58685;SDS011;44465;53.206;-6.106;2022-10-16T06:29:18;0.77;;;0.40;;
58685;SDS011;44465;53.206;-6.106;2022-10-16T06:31:44;0.40;;;0.30;;
58685;SDS011;44465;53.206;-6.106;2022-10-16T06:34:10;1.08;;;0.40;;
58685;SDS011;44465;53.206;-6.106;2022-10-16T06:36:37;0.10;;;0.10;;
58685;SDS011;44465;53.206;-6.106;2022-10-16T06:39:03;1.27;;;0.60;;
58685;SDS011;44465;53.206;-6.106;2022-10-16T06:41:30;0.73;;;0.30;;
58685;SDS011;44465;53.206;-6.106;2022-10-16T06:43:59;0.73;;;0.45;;
58685;SDS011;44465;53.206;-6.106;2022-10-16T06:46:25;0.57;;;0.40;;
58685;SDS011;44465;53.206;-6.106;2022-10-16T06:48:52;0.77;;;0.57;;
58685;SDS011;44465;53.206;-6.106;2022-10-16T06:51:19;0.77;;;0.57;;
58685;SDS011;44465;53.206;-6.106;2022-10-16T06:53:48;0.55;;;0.52;;
58685;SDS011;44465;53.206;-6.106;2022-10-16T06:58:42;0.73;;;0.73;;
58685;SDS011;44465;53.206;-6.106;2022-10-16T07:01:08;0.52;;;0.43;;
58685;SDS011;44465;53.206;-6.106;2022-10-16T07:03:41;1.27;;;0.40;;
58685;SDS011;44465;53.206;-6.106;2022-10-16T07:06:08;0.50;;;0.40;;
58685;SDS011;44465;53.206;-6.106;2022-10-16T07:08:36;1.08;;;0.30;;
58685;SDS011;44465;53.206;-6.106;2022-10-16T07:11:04;0.40;;;0.30;;
58685;SDS011;44465;53.206;-6.106;2022-10-16T07:13:35;1.90;;;0.50;;
58685;SDS011;44465;53.206;-6.106;2022-10-16T07:16:05;0.35;;;0.30;;
58685;SDS011;44465;53.206;-6.106;2022-10-16T07:18:32;0.57;;;0.30;;
58685;SDS011;44465;53.206;-6.106;2022-10-16T07:21:07;0.28;;;0.20;;
58685;SDS011;44465;53.206;-6.106;2022-10-16T07:23:34;0.30;;;0.30;;
58685;SDS011;44465;53.206;-6.106;2022-10-16T07:26:00;2.65;;;0.52;;
58685;SDS011;44465;53.206;-6.106;2022-10-16T07:28:26;2.42;;;0.50;;
58685;SDS011;44465;53.206;-6.106;2022-10-16T07:30:51;2.53;;;0.60;;
58685;SDS011;44465;53.206;-6.106;2022-10-16T07:33:17;0.55;;;0.30;;
58685;SDS011;44465;53.206;-6.106;2022-10-16T07:35:52;0.55;;;0.28;;
58685;SDS011;44465;53.206;-6.106;2022-10-16T07:38:19;1.00;;;0.28;;
58685;SDS011;44465;53.206;-6.106;2022-10-16T07:40:46;0.57;;;0.35;;
58685;SDS011;44465;53.206;-6.106;2022-10-16T07:43:11;0.55;;;0.40;;
58685;SDS011;44465;53.206;-6.106;2022-10-16T07:45:37;1.98;;;0.60;;
58685;SDS011;44465;53.206;-6.106;2022-10-16T07:48:11;0.57;;;0.40;;
58685;SDS011;44465;53.206;-6.106;2022-10-16T07:50:36;1.65;;;0.40;;
58685;SDS011;44465;53.206;-6.106;2022-10-16T07:53:03;0.75;;;0.65;;
58685;SDS011;44465;53.206;-6.106;2022-10-16T07:55:28;1.25;;;0.40;;
58685;SDS011;44465;53.206;-6.106;2022-10-16T07:57:54;0.70;;;0.32;;
58685;SDS011;44465;53.206;-6.106;2022-10-16T08:00:20;0.80;;;0.43;;
58685;SDS011;44465;53.206;-6.106;2022-10-16T08:02:45;1.58;;;0.40;;
58685;SDS011;44465;53.206;-6.106;2022-10-16T08:05:11;1.13;;;0.52;;
58685;SDS011;44465;53.206;-6.106;2022-10-16T08:07:36;0.73;;;0.30;;
58685;SDS011;44465;53.206;-6.106;2022-10-16T08:10:02;1.33;;;0.50;;
58685;SDS011;44465;53.206;-6.106;2022-10-16T08:12:28;0.95;;;0.38;;
58685;SDS011;44465;53.206;-6.106;2022-10-16T08:14:54;0.77;;;0.47;;
58685;SDS011;44465;53.206;-6.106;2022-10-16T08:17:20;0.75;;;0.40;;
58685;SDS011;44465;53.206;-6.106;2022-10-16T08:19:48;0.73;;;0.30;;
58685;SDS011;44465;53.206;-6.106;2022-10-16T08:22:14;0.45;;;0.38;;
58685;SDS011;44465;53.206;-6.106;2022-10-16T08:24:40;0.70;;;0.40;;
58685;SDS011;44465;53.206;-6.106;2022-10-16T08:27:06;0.40;;;0.40;;
58685;SDS011;44465;53.206;-6.106;2022-10-16T08:29:32;0.77;;;0.60;;
58685;SDS011;44465;53.206;-6.106;2022-10-16T08:31:58;0.75;;;0.40;;
58685;SDS011;44465;53.206;-6.106;2022-10-16T08:34:23;1.77;;;0.50;;
58685;SDS011;44465;53.206;-6.106;2022-10-16T08:36:49;0.82;;;0.40;;
58685;SDS011;44465;53.206;-6.106;2022-10-16T08:39:18;2.45;;;0.47;;
58685;SDS011;44465;53.206;-6.106;2022-10-16T08:47:28;1.65;;;0.60;;
58685;SDS011;44465;53.206;-6.106;2022-10-16T08:50:00;2.45;;;0.80;;
58685;SDS011;44465;53.206;-6.106;2022-10-16T08:52:34;7.03;;;1.25;;
58685;SDS011;44465;53.206;-6.106;2022-10-16T08:55:03;4.93;;;1.10;;
58685;SDS011;44465;53.206;-6.106;2022-10-16T08:57:29;4.70;;;1.60;;
58685;SDS011;44465;53.206;-6.106;2022-10-16T08:59:58;7.55;;;2.40;;
58685;SDS011;44465;53.206;-6.106;2022-10-16T09:02:34;10.13;;;2.42;;
58685;SDS011;44465;53.206;-6.106;2022-10-16T09:08:06;10.43;;;3.17;;
58685;SDS011;44465;53.206;-6.106;2022-10-16T09:13:43;9.98;;;1.92;;
58685;SDS011;44465;53.206;-6.106;2022-10-16T09:16:35;7.32;;;2.28;;
58685;SDS011;44465;53.206;-6.106;2022-10-16T09:19:19;13.55;;;2.53;;
58685;SDS011;44465;53.206;-6.106;2022-10-16T09:21:53;7.57;;;2.10;;
58685;SDS011;44465;53.206;-6.106;2022-10-16T09:24:21;14.35;;;2.35;;
58685;SDS011;44465;53.206;-6.106;2022-10-16T09:26:50;10.30;;;2.97;;
58685;SDS011;44465;53.206;-6.106;2022-10-16T09:29:17;12.65;;;2.60;;
58685;SDS011;44465;53.206;-6.106;2022-10-16T09:31:50;10.70;;;3.15;;
58685;SDS011;44465;53.206;-6.106;2022-10-16T09:36:51;9.23;;;2.13;;
58685;SDS011;44465;53.206;-6.106;2022-10-16T09:39:17;8.05;;;2.10;;
58685;SDS011;44465;53.206;-6.106;2022-10-16T09:41:43;10.05;;;1.90;;
58685;SDS011;44465;53.206;-6.106;2022-10-16T09:44:23;9.35;;;2.22;;
58685;SDS011;44465;53.206;-6.106;2022-10-16T09:47:05;11.23;;;2.17;;
58685;SDS011;44465;53.206;-6.106;2022-10-16T09:49:37;7.93;;;2.65;;
58685;SDS011;44465;53.206;-6.106;2022-10-16T09:52:03;20.20;;;3.00;;
58685;SDS011;44465;53.206;-6.106;2022-10-16T09:54:30;6.93;;;2.03;;
58685;SDS011;44465;53.206;-6.106;2022-10-16T09:57:04;13.98;;;3.03;;
58685;SDS011;44465;53.206;-6.106;2022-10-16T09:59:31;8.85;;;2.67;;
58685;SDS011;44465;53.206;-6.106;2022-10-16T10:01:56;10.52;;;2.85;;
58685;SDS011;44465;53.206;-6.106;2022-10-16T10:04:44;12.57;;;3.17;;
58685;SDS011;44465;53.206;-6.106;2022-10-16T10:07:18;7.32;;;2.20;;
58685;SDS011;44465;53.206;-6.106;2022-10-16T10:09:50;14.02;;;2.17;;
58685;SDS011;44465;53.206;-6.106;2022-10-16T10:12:23;6.57;;;2.40;;
58685;SDS011;44465;53.206;-6.106;2022-10-16T10:14:51;9.98;;;2.47;;
58685;SDS011;44465;53.206;-6.106;2022-10-16T10:22:25;7.22;;;2.03;;
58685;SDS011;44465;53.206;-6.106;2022-10-16T10:47:03;7.35;;;1.83;;
58685;SDS011;44465;53.206;-6.106;2022-10-16T10:55:09;8.15;;;1.70;;
58685;SDS011;44465;53.206;-6.106;2022-10-16T10:58:24;5.70;;;1.92;;
58685;SDS011;44465;53.206;-6.106;2022-10-16T11:00:47;5.35;;;1.80;;
58685;SDS011;44465;53.206;-6.106;2022-10-16T11:06:31;6.35;;;1.60;;
58685;SDS011;44465;53.206;-6.106;2022-10-16T11:09:10;4.00;;;1.27;;
58685;SDS011;44465;53.206;-6.106;2022-10-16T11:11:43;5.30;;;1.83;;
58685;SDS011;44465;53.206;-6.106;2022-10-16T11:14:17;4.40;;;1.70;;
58685;SDS011;44465;53.206;-6.106;2022-10-16T11:16:52;7.22;;;1.83;;
58685;SDS011;44465;53.206;-6.106;2022-10-16T11:19:37;5.20;;;1.67;;
58685;SDS011;44465;53.206;-6.106;2022-10-16T11:25:12;3.20;;;1.58;;
58685;SDS011;44465;53.206;-6.106;2022-10-16T11:30:21;8.77;;;2.08;;
58685;SDS011;44465;53.206;-6.106;2022-10-16T11:38:12;6.60;;;1.77;;
58685;SDS011;44465;53.206;-6.106;2022-10-16T11:41:00;2.95;;;1.60;;
58685;SDS011;44465;53.206;-6.106;2022-10-16T11:43:41;4.40;;;1.48;;
58685;SDS011;44465;53.206;-6.106;2022-10-16T11:46:18;2.72;;;1.13;;
58685;SDS011;44465;53.206;-6.106;2022-10-16T11:54:21;2.55;;;1.10;;
58685;SDS011;44465;53.206;-6.106;2022-10-16T11:56:55;4.70;;;1.30;;
58685;SDS011;44465;53.206;-6.106;2022-10-16T11:59:31;2.80;;;1.42;;
58685;SDS011;44465;53.206;-6.106;2022-10-16T12:07:19;4.00;;;1.17;;
58685;SDS011;44465;53.206;-6.106;2022-10-16T12:09:49;3.30;;;1.30;;
58685;SDS011;44465;53.206;-6.106;2022-10-16T12:15:00;3.38;;;1.30;;
58685;SDS011;44465;53.206;-6.106;2022-10-16T12:17:45;2.70;;;1.17;;
58685;SDS011;44465;53.206;-6.106;2022-10-16T12:22:37;2.42;;;1.20;;
58685;SDS011;44465;53.206;-6.106;2022-10-16T12:25:26;2.85;;;1.08;;
58685;SDS011;44465;53.206;-6.106;2022-10-16T12:28:19;1.52;;;1.02;;
58685;SDS011;44465;53.206;-6.106;2022-10-16T12:30:56;3.65;;;1.00;;
58685;SDS011;44465;53.206;-6.106;2022-10-16T12:33:25;3.13;;;0.93;;
58685;SDS011;44465;53.206;-6.106;2022-10-16T12:35:56;2.85;;;0.95;;
58685;SDS011;44465;53.206;-6.106;2022-10-16T12:38:25;3.20;;;0.98;;
58685;SDS011;44465;53.206;-6.106;2022-10-16T12:40:57;3.50;;;0.98;;
58685;SDS011;44465;53.206;-6.106;2022-10-16T12:46:01;3.20;;;1.50;;
58685;SDS011;44465;53.206;-6.106;2022-10-16T12:48:45;0.98;;;0.80;;
58685;SDS011;44465;53.206;-6.106;2022-10-16T12:51:33;5.40;;;1.35;;
58685;SDS011;44465;53.206;-6.106;2022-10-16T12:54:04;3.80;;;1.25;;
58685;SDS011;44465;53.206;-6.106;2022-10-16T12:59:35;7.72;;;2.08;;
58685;SDS011;44465;53.206;-6.106;2022-10-16T13:07:44;5.70;;;1.75;;
58685;SDS011;44465;53.206;-6.106;2022-10-16T13:10:26;9.05;;;2.17;;
58685;SDS011;44465;53.206;-6.106;2022-10-16T13:13:19;5.00;;;1.63;;
58685;SDS011;44465;53.206;-6.106;2022-10-16T13:18:40;5.45;;;1.42;;
58685;SDS011;44465;53.206;-6.106;2022-10-16T13:29:30;2.08;;;1.40;;
58685;SDS011;44465;53.206;-6.106;2022-10-16T13:31:57;4.03;;;1.40;;
58685;SDS011;44465;53.206;-6.106;2022-10-16T13:34:24;5.35;;;1.55;;
58685;SDS011;44465;53.206;-6.106;2022-10-16T13:36:51;7.07;;;1.77;;
58685;SDS011;44465;53.206;-6.106;2022-10-16T13:42:06;4.32;;;1.48;;
58685;SDS011;44465;53.206;-6.106;2022-10-16T13:44:48;4.07;;;1.13;;
58685;SDS011;44465;53.206;-6.106;2022-10-16T13:49:43;5.65;;;1.35;;
58685;SDS011;44465;53.206;-6.106;2022-10-16T13:52:16;6.18;;;1.45;;
58685;SDS011;44465;53.206;-6.106;2022-10-16T13:54:46;4.82;;;1.17;;
58685;SDS011;44465;53.206;-6.106;2022-10-16T13:57:16;1.77;;;1.15;;
58685;SDS011;44465;53.206;-6.106;2022-10-16T13:59:42;9.75;;;1.77;;
58685;SDS011;44465;53.206;-6.106;2022-10-16T14:02:27;7.28;;;1.38;;
58685;SDS011;44465;53.206;-6.106;2022-10-16T14:05:02;10.40;;;1.52;;
58685;SDS011;44465;53.206;-6.106;2022-10-16T14:07:33;6.75;;;1.45;;
58685;SDS011;44465;53.206;-6.106;2022-10-16T14:10:00;2.50;;;1.40;;
58685;SDS011;44465;53.206;-6.106;2022-10-16T14:12:29;5.00;;;1.50;;
58685;SDS011;44465;53.206;-6.106;2022-10-16T14:14:55;9.52;;;1.80;;
58685;SDS011;44465;53.206;-6.106;2022-10-16T14:17:24;6.03;;;1.75;;
58685;SDS011;44465;53.206;-6.106;2022-10-16T14:19:57;6.45;;;1.50;;
58685;SDS011;44465;53.206;-6.106;2022-10-16T14:22:38;4.43;;;1.60;;
58685;SDS011;44465;53.206;-6.106;2022-10-16T14:27:44;4.85;;;1.38;;
58685;SDS011;44465;53.206;-6.106;2022-10-16T14:32:59;3.63;;;1.63;;
58685;SDS011;44465;53.206;-6.106;2022-10-16T14:35:31;2.45;;;1.40;;
58685;SDS011;44465;53.206;-6.106;2022-10-16T14:37:59;3.85;;;1.38;;
58685;SDS011;44465;53.206;-6.106;2022-10-16T14:40:27;6.28;;;1.63;;
58685;SDS011;44465;53.206;-6.106;2022-10-16T14:42:57;2.72;;;1.00;;
58685;SDS011;44465;53.206;-6.106;2022-10-16T14:45:26;5.43;;;1.60;;
58685;SDS011;44465;53.206;-6.106;2022-10-16T14:47:56;3.58;;;1.00;;
58685;SDS011;44465;53.206;-6.106;2022-10-16T14:50:24;6.80;;;1.23;;
58685;SDS011;44465;53.206;-6.106;2022-10-16T14:52:49;7.80;;;1.58;;
58685;SDS011;44465;53.206;-6.106;2022-10-16T14:55:15;1.95;;;1.00;;
58685;SDS011;44465;53.206;-6.106;2022-10-16T14:57:42;6.55;;;1.40;;
58685;SDS011;44465;53.206;-6.106;2022-10-16T15:00:19;4.30;;;1.43;;
58685;SDS011;44465;53.206;-6.106;2022-10-16T15:02:48;2.58;;;1.40;;
58685;SDS011;44465;53.206;-6.106;2022-10-16T15:07:51;2.35;;;1.20;;
58685;SDS011;44465;53.206;-6.106;2022-10-16T15:10:19;5.05;;;1.40;;
58685;SDS011;44465;53.206;-6.106;2022-10-16T15:12:46;2.78;;;1.15;;
58685;SDS011;44465;53.206;-6.106;2022-10-16T15:15:21;3.60;;;0.95;;
58685;SDS011;44465;53.206;-6.106;2022-10-16T15:17:51;3.92;;;1.00;;
58685;SDS011;44465;53.206;-6.106;2022-10-16T15:20:27;2.40;;;1.00;;
58685;SDS011;44465;53.206;-6.106;2022-10-16T15:22:55;1.05;;;0.80;;
58685;SDS011;44465;53.206;-6.106;2022-10-16T15:27:55;4.18;;;1.15;;
58685;SDS011;44465;53.206;-6.106;2022-10-16T15:30:21;3.33;;;1.15;;
58685;SDS011;44465;53.206;-6.106;2022-10-16T15:32:46;3.58;;;1.33;;
58685;SDS011;44465;53.206;-6.106;2022-10-16T15:35:12;2.85;;;1.42;;
58685;SDS011;44465;53.206;-6.106;2022-10-16T15:37:37;3.20;;;1.10;;
58685;SDS011;44465;53.206;-6.106;2022-10-16T15:40:03;4.55;;;1.30;;
58685;SDS011;44465;53.206;-6.106;2022-10-16T15:42:29;3.28;;;1.20;;
58685;SDS011;44465;53.206;-6.106;2022-10-16T15:44:54;3.65;;;1.33;;
58685;SDS011;44465;53.206;-6.106;2022-10-16T15:47:20;3.45;;;1.50;;
58685;SDS011;44465;53.206;-6.106;2022-10-16T15:49:45;6.30;;;1.23;;
58685;SDS011;44465;53.206;-6.106;2022-10-16T15:52:11;3.22;;;1.38;;
58685;SDS011;44465;53.206;-6.106;2022-10-16T15:54:36;3.45;;;0.98;;
58685;SDS011;44465;53.206;-6.106;2022-10-16T15:57:02;2.63;;;1.15;;
58685;SDS011;44465;53.206;-6.106;2022-10-16T15:59:28;4.30;;;1.52;;
58685;SDS011;44465;53.206;-6.106;2022-10-16T16:01:53;5.93;;;1.85;;
58685;SDS011;44465;53.206;-6.106;2022-10-16T16:04:19;3.35;;;1.20;;
58685;SDS011;44465;53.206;-6.106;2022-10-16T16:06:44;1.55;;;1.17;;
58685;SDS011;44465;53.206;-6.106;2022-10-16T16:09:11;1.50;;;1.00;;
58685;SDS011;44465;53.206;-6.106;2022-10-16T16:14:04;2.20;;;1.60;;
58685;SDS011;44465;53.206;-6.106;2022-10-16T16:16:31;7.53;;;1.58;;
58685;SDS011;44465;53.206;-6.106;2022-10-16T16:19:02;2.38;;;1.45;;
58685;SDS011;44465;53.206;-6.106;2022-10-16T16:21:28;4.13;;;1.63;;
58685;SDS011;44465;53.206;-6.106;2022-10-16T16:23:54;2.50;;;1.50;;
58685;SDS011;44465;53.206;-6.106;2022-10-16T16:26:23;2.33;;;1.73;;
58685;SDS011;44465;53.206;-6.106;2022-10-16T16:28:51;2.35;;;1.40;;
58685;SDS011;44465;53.206;-6.106;2022-10-16T16:31:18;4.72;;;1.95;;
58685;SDS011;44465;53.206;-6.106;2022-10-16T16:33:44;3.33;;;1.90;;
58685;SDS011;44465;53.206;-6.106;2022-10-16T16:36:10;4.63;;;1.67;;
58685;SDS011;44465;53.206;-6.106;2022-10-16T16:38:35;2.45;;;1.67;;
58685;SDS011;44465;53.206;-6.106;2022-10-16T16:41:10;4.55;;;1.83;;
58685;SDS011;44465;53.206;-6.106;2022-10-16T16:43:39;4.05;;;2.20;;
58685;SDS011;44465;53.206;-6.106;2022-10-16T16:46:05;3.30;;;2.40;;
58685;SDS011;44465;53.206;-6.106;2022-10-16T16:48:31;3.00;;;1.70;;
58685;SDS011;44465;53.206;-6.106;2022-10-16T16:51:02;4.13;;;2.63;;
58685;SDS011;44465;53.206;-6.106;2022-10-16T16:53:35;3.80;;;2.20;;
58685;SDS011;44465;53.206;-6.106;2022-10-16T16:56:02;5.78;;;2.20;;
58685;SDS011;44465;53.206;-6.106;2022-10-16T16:58:28;5.90;;;2.15;;
58685;SDS011;44465;53.206;-6.106;2022-10-16T17:00:54;3.67;;;2.22;;
58685;SDS011;44465;53.206;-6.106;2022-10-16T17:03:19;5.25;;;2.40;;
58685;SDS011;44465;53.206;-6.106;2022-10-16T17:05:54;3.30;;;2.22;;
58685;SDS011;44465;53.206;-6.106;2022-10-16T17:08:21;3.17;;;2.08;;
58685;SDS011;44465;53.206;-6.106;2022-10-16T17:10:47;3.97;;;2.55;;